Portada
METAR-TAF:

METAR-TAF

Aeroports :

Nagpur, Índia

latitud: 21-06N, longitud: 079-03E, altitud: 308 m

Observació

L'informe es va fer fa 31 minuts, a les 14:00 UTC
Vent calma
Temperatura 21°C
Humitat 49%
Pressió 1013 hPa
Visibilitat: 3000 m
calitja

METAR: VANP 151400Z 00000KT 3000 HZ NSC 21/10 Q1013 NOSIG

Hora: 20:01 (14:31 UTC)

Pronòstic

L'informe es va fer fa 3 hores i 31 minuts, a les 11:00 UTC
Pronòstic vàlid del 15 a les 12 UTC al 15 a les 21 UTC
Vent 3 kt del Est/Nord-Est
Visibilitat: 3000 m
calitja

TAF: VANP 151100Z 1512/1521 06003KT 3000 HZ NSC

Observacions i pronòstics meteorològics de més de 4000 aeroports (METAR i TAF).

Les estacions disponibles són els punts grocs i vermells al mapa.

Posi el ratolí al punt desitjat per veure el nom de l'estació.

Feu clic per veure les observacions i els pronòstics meteorològics.

Per canviar el mapa: feu clic els botons verds amb una creu de color negre per apropar; al botó verd amb un guió per allunyar la imatge; o en les fletxes verdes per a mapes adjacents.


METAR-TAF: